createdAt,value
2019-04-16T00:01:14.996Z,94866.22
2019-04-16T00:03:54.038Z,94870.78
2019-04-16T00:06:36.401Z,94859.91
2019-04-16T00:09:15.819Z,94860.56
2019-04-16T00:11:55.229Z,94862.63
2019-04-16T00:14:31.428Z,94857.73
2019-04-16T00:17:04.745Z,94856.01
2019-04-16T00:19:37.819Z,94853.92
2019-04-16T00:22:35.072Z,94852.88
2019-04-16T00:25:08.280Z,94848.63
2019-04-16T00:27:41.103Z,94846.01
2019-04-16T00:30:16.523Z,94841.73
2019-04-16T00:32:49.302Z,94845.28
2019-04-16T00:35:21.807Z,94840.37
2019-04-16T00:37:54.599Z,94839.88
2019-04-16T00:40:27.644Z,94844.20
2019-04-16T00:43:00.738Z,94846.15
2019-04-16T00:45:33.457Z,94847.28
2019-04-16T00:48:06.363Z,94846.69
2019-04-16T00:50:39.157Z,94848.22
2019-04-16T00:53:11.852Z,94848.40
2019-04-16T00:55:45.177Z,94848.61
2019-04-16T00:58:19.691Z,94852.20
2019-04-16T01:00:53.443Z,94851.70
2019-04-16T01:03:26.178Z,94859.99
2019-04-16T01:05:59.009Z,94861.01
2019-04-16T01:08:32.020Z,94865.41
2019-04-16T01:11:04.984Z,94863.75
2019-04-16T01:13:37.897Z,94864.34
2019-04-16T01:16:11.150Z,94865.66
2019-04-16T01:18:44.108Z,94862.74
2019-04-16T01:21:16.710Z,94866.73
2019-04-16T01:23:49.653Z,94867.97
2019-04-16T01:26:24.278Z,94866.68
2019-04-16T01:29:05.286Z,94865.36
2019-04-16T01:35:20.948Z,94865.72
2019-04-16T01:38:27.637Z,94863.45
2019-04-16T01:41:06.036Z,94863.27
2019-04-16T01:43:42.671Z,94868.54
2019-04-16T01:46:23.646Z,94867.61
2019-04-16T01:49:04.486Z,94868.30
2019-04-16T01:51:44.621Z,94865.62
2019-04-16T01:54:23.660Z,94870.99
2019-04-16T01:57:00.509Z,94867.95
2019-04-16T01:59:48.868Z,94866.34
2019-04-16T02:02:29.527Z,94866.66
2019-04-16T02:05:07.377Z,94867.51
2019-04-16T02:07:46.494Z,94868.41
2019-04-16T02:10:25.788Z,94869.96
2019-04-16T02:13:05.702Z,94869.31
2019-04-16T02:15:43.177Z,94873.72
2019-04-16T02:18:20.532Z,94871.97
2019-04-16T02:20:57.842Z,94874.06
2019-04-16T02:23:38.189Z,94871.87
2019-04-16T02:26:17.169Z,94874.69
2019-04-16T02:28:56.539Z,94869.97
2019-04-16T02:31:37.687Z,94875.30
2019-04-16T02:34:17.274Z,94866.09
2019-04-16T02:36:52.046Z,94872.20
2019-04-16T02:39:46.981Z,94875.17
2019-04-16T02:42:13.837Z,94875.17
2019-04-16T02:44:51.069Z,94872.61
2019-04-16T02:47:42.390Z,94867.55
2019-04-16T02:50:31.937Z,94866.25
2019-04-16T02:53:38.346Z,94865.08
2019-04-16T02:56:33.469Z,94867.56
2019-04-16T02:59:16.891Z,94864.95
2019-04-16T03:02:15.850Z,94866.45
2019-04-16T03:05:29.074Z,94859.66
2019-04-16T03:08:05.012Z,94858.84
2019-04-16T03:10:38.383Z,94856.62
2019-04-16T03:13:11.464Z,94855.11
2019-04-16T03:16:05.889Z,94855.84
2019-04-16T03:18:47.363Z,94850.92
2019-04-16T03:21:19.674Z,94856.79
2019-04-16T03:23:52.625Z,94860.90
2019-04-16T03:26:25.578Z,94860.95
2019-04-16T03:28:59.444Z,94866.69
2019-04-16T03:31:32.423Z,94865.08
2019-04-16T03:34:05.446Z,94868.02
2019-04-16T03:36:38.797Z,94875.02
2019-04-16T03:39:13.676Z,94876.17
2019-04-16T03:41:46.263Z,94873.98
2019-04-16T03:44:20.158Z,94873.53
2019-04-16T03:46:53.070Z,94879.02
2019-04-16T03:49:27.831Z,94883.12
2019-04-16T03:52:00.542Z,94882.64
2019-04-16T03:54:35.377Z,94878.78
2019-04-16T03:57:08.256Z,94885.73
2019-04-16T03:59:41.642Z,94890.82
2019-04-16T04:02:15.528Z,94891.00
2019-04-16T04:04:49.628Z,94892.78
2019-04-16T04:07:22.568Z,94894.55
2019-04-16T04:09:58.657Z,94886.83
2019-04-16T04:12:30.532Z,94897.34
2019-04-16T04:15:03.525Z,94900.66
2019-04-16T04:17:38.736Z,94906.53
2019-04-16T04:20:14.859Z,94907.45
2019-04-16T04:22:47.331Z,94907.55
2019-04-16T04:25:20.602Z,94910.41
2019-04-16T04:27:53.666Z,94916.91
2019-04-16T04:30:28.715Z,94926.20
2019-04-16T04:33:01.743Z,94928.31
2019-04-16T04:35:36.417Z,94930.97
2019-04-16T04:38:12.262Z,94932.31
2019-04-16T04:40:50.282Z,94935.61
2019-04-16T04:43:20.816Z,94933.06
2019-04-16T04:45:54.372Z,94935.19
2019-04-16T04:48:27.528Z,94939.48
2019-04-16T04:51:03.776Z,94936.72
2019-04-16T04:53:35.505Z,94936.73
2019-04-16T04:56:08.886Z,94942.43
2019-04-16T04:58:42.004Z,94935.53
2019-04-16T05:01:15.296Z,94937.27
2019-04-16T05:04:22.502Z,94940.03
2019-04-16T05:06:59.151Z,94946.19
2019-04-16T05:09:35.599Z,94950.38
2019-04-16T05:12:08.340Z,94953.20
2019-04-16T05:14:58.473Z,94959.28
2019-04-16T05:17:30.659Z,94956.08
2019-04-16T05:20:04.039Z,94950.80
2019-04-16T05:22:38.381Z,94954.86
2019-04-16T05:25:11.643Z,94949.56
2019-04-16T05:27:44.463Z,94952.30
2019-04-16T05:30:20.856Z,94948.61
2019-04-16T05:32:52.419Z,94950.91
2019-04-16T05:35:25.870Z,94948.03
2019-04-16T05:37:59.135Z,94945.98
2019-04-16T05:40:35.016Z,94947.06
2019-04-16T05:43:06.879Z,94950.25
2019-04-16T05:45:40.480Z,94950.14
2019-04-16T05:48:13.689Z,94946.73
2019-04-16T05:50:46.966Z,94945.80
2019-04-16T05:53:20.155Z,94945.42
2019-04-16T05:56:12.546Z,94950.81
2019-04-16T05:58:45.647Z,94950.49
2019-04-16T06:01:42.401Z,94944.51
2019-04-16T06:04:15.743Z,94949.44
2019-04-16T06:06:49.011Z,94947.34
2019-04-16T06:09:21.979Z,94941.81
2019-04-16T06:11:55.121Z,94943.88
2019-04-16T06:14:34.429Z,94950.47
2019-04-16T06:17:25.899Z,94951.44
2019-04-16T06:20:24.057Z,94963.45
2019-04-16T06:23:25.141Z,94958.02
2019-04-16T06:26:06.255Z,94957.69
2019-04-16T06:28:56.352Z,94955.55
2019-04-16T06:31:44.643Z,94964.17
2019-04-16T06:35:04.904Z,94967.88
2019-04-16T06:38:08.840Z,94972.52
2019-04-16T06:40:45.241Z,94971.39
2019-04-16T06:43:27.394Z,94967.81
2019-04-16T06:46:19.585Z,94965.85
2019-04-16T06:49:14.303Z,94963.48
2019-04-16T06:52:15.811Z,94965.12
2019-04-16T06:54:56.729Z,94956.27
2019-04-16T06:57:42.948Z,94957.81
2019-04-16T07:00:35.279Z,94951.52
2019-04-16T07:03:32.420Z,94954.19
2019-04-16T07:06:22.379Z,94953.02
2019-04-16T07:09:14.316Z,94948.17
2019-04-16T07:11:54.504Z,94942.10
2019-04-16T07:14:23.888Z,94943.14
2019-04-16T07:16:59.740Z,94936.67
2019-04-16T07:19:31.884Z,94939.59
2019-04-16T07:22:05.155Z,94937.86
2019-04-16T07:24:38.574Z,94942.14
2019-04-16T07:27:12.132Z,94943.99
2019-04-16T07:30:06.900Z,94942.09
2019-04-16T07:32:56.078Z,94937.80
2019-04-16T07:35:38.789Z,94928.91
2019-04-16T07:38:46.145Z,94924.37
2019-04-16T07:41:34.034Z,94929.64
2019-04-16T07:44:12.302Z,94922.02
2019-04-16T07:47:07.653Z,94920.51
2019-04-16T16:01:05.987Z,94662.62
2019-04-16T16:04:08.051Z,94662.56
2019-04-16T16:06:52.169Z,94666.11
2019-04-16T16:09:29.874Z,94656.61
2019-04-16T16:12:11.467Z,94660.39
2019-04-16T16:14:45.037Z,94656.55
2019-04-16T16:17:19.489Z,94661.38
2019-04-16T16:19:53.495Z,94656.40
2019-04-16T16:22:27.227Z,94661.47
2019-04-16T16:25:00.781Z,94659.43
2019-04-16T16:27:34.459Z,94659.98
2019-04-16T16:30:08.415Z,94657.51
2019-04-16T16:32:42.093Z,94666.60
2019-04-16T16:35:17.799Z,94662.13
2019-04-16T16:37:51.489Z,94668.30
2019-04-16T16:40:25.123Z,94665.03
2019-04-16T16:42:58.604Z,94665.83
2019-04-16T16:45:46.390Z,94666.51
2019-04-16T16:48:21.914Z,94668.45
2019-04-16T16:50:55.276Z,94674.31
2019-04-16T16:53:44.895Z,94672.75
2019-04-16T16:56:25.347Z,94673.75
2019-04-16T16:59:16.893Z,94680.30
2019-04-16T17:02:08.613Z,94682.28
2019-04-16T17:04:43.837Z,94686.02
2019-04-16T17:07:18.085Z,94688.13
2019-04-16T17:09:51.260Z,94691.40
2019-04-16T17:12:24.663Z,94687.70
2019-04-16T17:14:57.695Z,94689.80
2019-04-16T17:17:31.120Z,94689.44
2019-04-16T17:20:06.239Z,94697.57
2019-04-16T17:22:40.981Z,94699.89
2019-04-16T17:25:14.544Z,94699.30
2019-04-16T17:27:51.927Z,94693.92
2019-04-16T17:30:24.803Z,94703.14
2019-04-16T17:32:58.478Z,94704.78
2019-04-16T17:35:35.942Z,94705.28
2019-04-16T17:38:08.409Z,94705.80
2019-04-16T17:41:01.874Z,94712.27
2019-04-16T17:44:01.929Z,94717.41
2019-04-16T17:46:56.913Z,94718.89
2019-04-16T17:50:02.525Z,94717.01
2019-04-16T17:52:45.504Z,94734.13
2019-04-16T17:55:43.534Z,94736.36
2019-04-16T17:58:24.209Z,94736.58
2019-04-16T18:01:29.886Z,94740.07
2019-04-16T18:04:30.747Z,94747.52
2019-04-16T18:07:25.883Z,94745.87
2019-04-16T18:10:11.375Z,94749.05
2019-04-16T18:12:59.082Z,94750.20
2019-04-16T18:15:50.937Z,94749.86
2019-04-16T18:18:36.469Z,94749.03
2019-04-16T18:21:35.175Z,94750.11
2019-04-16T18:24:39.550Z,94742.46
2019-04-16T18:27:32.934Z,94755.39
2019-04-16T18:30:39.191Z,94751.27
2019-04-16T18:33:45.322Z,94757.98
2019-04-16T18:36:36.418Z,94755.62
2019-04-16T18:39:37.099Z,94756.64
2019-04-16T18:42:38.709Z,94760.53
2019-04-16T18:45:36.963Z,94759.78
2019-04-16T18:48:20.304Z,94756.23
2019-04-16T18:50:59.962Z,94763.58
2019-04-16T18:53:31.489Z,94753.66
2019-04-16T18:56:04.581Z,94752.64
2019-04-16T18:58:41.555Z,94755.81
2019-04-16T19:01:17.448Z,94760.94
2019-04-16T19:03:51.367Z,94756.14
2019-04-16T19:06:24.860Z,94762.86
2019-04-16T19:08:58.621Z,94763.05
2019-04-16T19:11:34.820Z,94760.22
2019-04-16T19:14:14.037Z,94764.59
2019-04-16T19:16:47.454Z,94760.02
2019-04-16T19:19:22.238Z,94762.50
2019-04-16T19:21:56.248Z,94762.80
2019-04-16T19:24:30.356Z,94759.54
2019-04-16T19:27:04.320Z,94762.62
2019-04-16T19:29:42.833Z,94764.66
2019-04-16T19:32:15.822Z,94761.18
2019-04-16T19:34:50.013Z,94757.02
2019-04-16T19:37:23.591Z,94763.37
2019-04-16T19:39:56.926Z,94761.97
2019-04-16T19:42:33.222Z,94760.31
2019-04-16T19:45:08.634Z,94765.97
2019-04-16T19:47:42.325Z,94759.02
2019-04-16T19:50:18.051Z,94767.94
2019-04-16T19:52:53.073Z,94763.70
2019-04-16T19:55:26.599Z,94768.16
2019-04-16T19:58:00.331Z,94765.16
2019-04-16T20:00:34.447Z,94765.23
2019-04-16T20:03:08.304Z,94766.42
2019-04-16T20:05:42.252Z,94765.12
2019-04-16T20:08:16.210Z,94764.80
2019-04-16T20:10:49.703Z,94761.52
2019-04-16T20:13:28.991Z,94768.02
2019-04-16T20:16:03.012Z,94767.59
2019-04-16T20:18:50.289Z,94770.50
2019-04-16T20:21:16.381Z,94768.89
2019-04-16T20:23:50.094Z,94770.14
2019-04-16T20:26:25.581Z,94775.08
2019-04-16T20:28:59.332Z,94768.77
2019-04-16T20:31:36.932Z,94773.67
2019-04-16T20:34:12.419Z,94776.84
2019-04-16T20:36:45.286Z,94771.66
2019-04-16T20:39:18.720Z,94776.28
2019-04-16T20:41:53.114Z,94773.32
2019-04-16T20:44:27.690Z,94773.23
2019-04-16T20:47:03.348Z,94772.45
2019-04-16T20:49:35.492Z,94774.92
2019-04-16T20:52:08.757Z,94773.03
2019-04-16T20:54:45.603Z,94778.34
2019-04-16T20:57:18.747Z,94774.73
2019-04-16T20:59:53.771Z,94768.05
2019-04-16T21:02:29.451Z,94771.45
2019-04-16T21:05:04.500Z,94771.94
2019-04-16T21:07:37.835Z,94775.02
2019-04-16T21:10:11.211Z,94771.33
2019-04-16T21:12:45.379Z,94772.86
2019-04-16T21:15:19.111Z,94767.73
2019-04-16T21:17:52.253Z,94770.17
2019-04-16T21:20:25.103Z,94773.55
2019-04-16T21:23:01.567Z,94774.30
2019-04-16T21:25:33.500Z,94773.16
2019-04-16T21:28:23.884Z,94772.95
2019-04-16T21:31:01.092Z,94775.78
2019-04-16T21:33:40.023Z,94771.31
2019-04-16T21:36:19.159Z,94771.76
2019-04-16T21:39:09.672Z,94773.17
2019-04-16T21:41:42.571Z,94782.92
2019-04-16T21:44:15.683Z,94780.64
2019-04-16T21:46:52.017Z,94780.52
2019-04-16T21:49:37.857Z,94777.37
2019-04-16T21:52:08.009Z,94780.79
2019-04-16T21:54:41.429Z,94772.27
2019-04-16T21:57:14.936Z,94775.39
2019-04-16T21:59:50.270Z,94775.91
2019-04-16T22:02:30.149Z,94777.02
2019-04-16T22:05:02.981Z,94776.85
2019-04-16T22:07:36.057Z,94776.50
2019-04-16T22:10:09.436Z,94780.73
2019-04-16T22:12:44.805Z,94780.72
2019-04-16T22:15:17.255Z,94786.08
2019-04-16T22:17:50.015Z,94785.05
2019-04-16T22:20:22.927Z,94786.27
2019-04-16T22:22:55.806Z,94786.66
2019-04-16T22:25:28.773Z,94791.22
2019-04-16T22:28:01.680Z,94792.70
2019-04-16T22:30:34.941Z,94799.85
2019-04-16T22:33:07.715Z,94797.52
2019-04-16T22:35:40.785Z,94791.61
2019-04-16T22:38:14.472Z,94792.94
2019-04-16T22:41:04.731Z,94786.66
2019-04-16T22:44:06.286Z,94784.55
2019-04-16T22:46:51.146Z,94789.27
2019-04-16T22:49:24.157Z,94790.61
2019-04-16T22:51:57.071Z,94788.27
2019-04-16T22:54:29.873Z,94787.06
2019-04-16T22:57:11.112Z,94784.91
2019-04-16T22:59:44.281Z,94783.10
2019-04-16T23:02:28.987Z,94784.36
2019-04-16T23:05:01.724Z,94782.20
2019-04-16T23:07:36.583Z,94781.44
2019-04-16T23:10:09.963Z,94787.24
2019-04-16T23:12:42.933Z,94784.45
2019-04-16T23:15:16.015Z,94783.62
2019-04-16T23:17:48.868Z,94778.91
2019-04-16T23:20:29.687Z,94787.41
2019-04-16T23:22:58.245Z,94786.66
2019-04-16T23:25:31.347Z,94784.00
2019-04-16T23:28:09.451Z,94779.50
2019-04-16T23:30:40.179Z,94782.57
2019-04-16T23:33:13.087Z,94784.62
2019-04-16T23:35:46.215Z,94794.39
2019-04-16T23:38:19.287Z,94795.16
2019-04-16T23:40:52.483Z,94794.57
2019-04-16T23:43:53.520Z,94788.34
2019-04-16T23:46:53.309Z,94792.42
2019-04-16T23:49:52.504Z,94792.50
2019-04-16T23:52:50.683Z,94792.14
2019-04-16T23:55:48.986Z,94794.29
2019-04-16T23:58:34.389Z,94793.72
